sensor_id;sensor_type;location;lat;lon;timestamp;pressure;altitude;pressure_sealevel;temperature;humidity
7109;BME280;29079;41.930;25.558;2022-10-31T00:02:01;99877.84;;;11.42;58.46
7109;BME280;29079;41.930;25.558;2022-10-31T00:04:31;99873.47;;;11.41;58.62
7109;BME280;29079;41.930;25.558;2022-10-31T00:07:00;99875.69;;;11.36;58.49
7109;BME280;29079;41.930;25.558;2022-10-31T00:09:30;99877.66;;;11.34;58.62
7109;BME280;29079;41.930;25.558;2022-10-31T00:12:01;99872.91;;;11.38;58.62
7109;BME280;29079;41.930;25.558;2022-10-31T00:14:31;99866.84;;;11.36;58.40
7109;BME280;29079;41.930;25.558;2022-10-31T00:17:01;99865.41;;;11.31;58.43
7109;BME280;29079;41.930;25.558;2022-10-31T00:19:31;99862.28;;;11.26;58.59
7109;BME280;29079;41.930;25.558;2022-10-31T00:22:01;99864.53;;;11.21;58.77
7109;BME280;29079;41.930;25.558;2022-10-31T00:24:30;99866.47;;;11.19;58.51
7109;BME280;29079;41.930;25.558;2022-10-31T00:27:01;99858.59;;;11.18;58.72
7109;BME280;29079;41.930;25.558;2022-10-31T00:29:31;99861.16;;;10.98;59.24
7109;BME280;29079;41.930;25.558;2022-10-31T00:32:00;99866.81;;;11.05;59.25
7109;BME280;29079;41.930;25.558;2022-10-31T00:34:30;99865.91;;;11.15;58.78
7109;BME280;29079;41.930;25.558;2022-10-31T00:37:00;99859.88;;;11.23;58.72
7109;BME280;29079;41.930;25.558;2022-10-31T00:39:29;99859.41;;;11.18;58.50
7109;BME280;29079;41.930;25.558;2022-10-31T00:41:59;99863.09;;;11.17;59.01
7109;BME280;29079;41.930;25.558;2022-10-31T00:44:29;99861.66;;;11.13;58.68
7109;BME280;29079;41.930;25.558;2022-10-31T00:46:59;99852.75;;;11.03;58.80
7109;BME280;29079;41.930;25.558;2022-10-31T00:49:30;99851.19;;;11.00;58.95
7109;BME280;29079;41.930;25.558;2022-10-31T00:52:00;99858.63;;;10.96;59.13
7109;BME280;29079;41.930;25.558;2022-10-31T00:54:30;99852.69;;;10.93;59.04
7109;BME280;29079;41.930;25.558;2022-10-31T00:56:59;99861.63;;;10.82;59.54
7109;BME280;29079;41.930;25.558;2022-10-31T00:59:30;99862.31;;;10.84;59.31
7109;BME280;29079;41.930;25.558;2022-10-31T01:02:00;99865.94;;;10.83;59.34
7109;BME280;29079;41.930;25.558;2022-10-31T01:04:30;99854.78;;;10.89;59.70
7109;BME280;29079;41.930;25.558;2022-10-31T01:06:59;99854.44;;;10.83;59.47
7109;BME280;29079;41.930;25.558;2022-10-31T01:09:29;99850.97;;;10.71;60.08
7109;BME280;29079;41.930;25.558;2022-10-31T01:11:59;99859.44;;;10.76;59.70
7109;BME280;29079;41.930;25.558;2022-10-31T01:14:30;99859.91;;;10.81;59.90
7109;BME280;29079;41.930;25.558;2022-10-31T01:17:00;99856.75;;;10.76;59.47
7109;BME280;29079;41.930;25.558;2022-10-31T01:19:30;99857.91;;;10.73;59.64
7109;BME280;29079;41.930;25.558;2022-10-31T01:22:00;99850.97;;;10.71;59.53
7109;BME280;29079;41.930;25.558;2022-10-31T01:24:29;99857.91;;;10.73;59.73
7109;BME280;29079;41.930;25.558;2022-10-31T01:26:59;99860.31;;;10.76;59.59
7109;BME280;29079;41.930;25.558;2022-10-31T01:29:31;99867.84;;;10.71;59.69
7109;BME280;29079;41.930;25.558;2022-10-31T01:32:01;99867.56;;;10.74;59.61
7109;BME280;29079;41.930;25.558;2022-10-31T01:34:30;99861.13;;;10.77;59.58
7109;BME280;29079;41.930;25.558;2022-10-31T01:37:00;99862.09;;;10.76;59.56
7109;BME280;29079;41.930;25.558;2022-10-31T01:39:29;99861.41;;;10.74;60.02
7109;BME280;29079;41.930;25.558;2022-10-31T01:41:59;99861.41;;;10.74;59.91
7109;BME280;29079;41.930;25.558;2022-10-31T01:47:19;99859.88;;;10.60;60.19
7109;BME280;29079;41.930;25.558;2022-10-31T01:49:50;99849.81;;;10.63;59.81
7109;BME280;29079;41.930;25.558;2022-10-31T01:52:21;99856.47;;;10.69;60.09
7109;BME280;29079;41.930;25.558;2022-10-31T01:54:53;99856.50;;;10.58;60.79
7109;BME280;29079;41.930;25.558;2022-10-31T01:57:25;99851.28;;;10.56;60.33
7109;BME280;29079;41.930;25.558;2022-10-31T01:59:57;99856.75;;;10.55;60.23
7109;BME280;29079;41.930;25.558;2022-10-31T02:02:29;99855.41;;;10.60;60.47
7109;BME280;29079;41.930;25.558;2022-10-31T02:05:00;99850.63;;;10.64;60.07
7109;BME280;29079;41.930;25.558;2022-10-31T02:07:31;99857.03;;;10.52;60.39
7109;BME280;29079;41.930;25.558;2022-10-31T02:10:03;99852.91;;;10.48;60.57
7109;BME280;29079;41.930;25.558;2022-10-31T02:12:34;99854.66;;;10.58;60.97
7109;BME280;29079;41.930;25.558;2022-10-31T02:15:06;99866.25;;;10.69;61.20
7109;BME280;29079;41.930;25.558;2022-10-31T02:17:38;99868.94;;;10.69;60.81
7109;BME280;29079;41.930;25.558;2022-10-31T02:20:12;99869.19;;;10.66;60.63
7109;BME280;29079;41.930;25.558;2022-10-31T02:25:37;99880.22;;;10.72;60.19
7109;BME280;29079;41.930;25.558;2022-10-31T02:28:22;99878.44;;;10.61;59.56
7109;BME280;29079;41.930;25.558;2022-10-31T02:31:01;99878.19;;;10.65;60.30
7109;BME280;29079;41.930;25.558;2022-10-31T02:33:34;99883.41;;;10.66;59.83
7109;BME280;29079;41.930;25.558;2022-10-31T02:36:10;99884.53;;;10.52;60.75
7109;BME280;29079;41.930;25.558;2022-10-31T02:38:44;99888.78;;;10.55;60.64
7109;BME280;29079;41.930;25.558;2022-10-31T02:41:18;99888.44;;;10.48;60.54
7109;BME280;29079;41.930;25.558;2022-10-31T02:43:54;99891.06;;;10.59;60.55
7109;BME280;29079;41.930;25.558;2022-10-31T02:46:30;99892.63;;;10.62;60.44
7109;BME280;29079;41.930;25.558;2022-10-31T02:49:03;99899.28;;;10.68;59.89
7109;BME280;29079;41.930;25.558;2022-10-31T02:51:35;99896.22;;;10.72;60.07
7109;BME280;29079;41.930;25.558;2022-10-31T02:54:04;99901.44;;;10.74;59.81
7109;BME280;29079;41.930;25.558;2022-10-31T02:56:34;99898.63;;;10.75;59.37
7109;BME280;29079;41.930;25.558;2022-10-31T02:59:05;99896.81;;;10.76;59.24
7109;BME280;29079;41.930;25.558;2022-10-31T03:01:52;99902.41;;;10.73;59.34
7109;BME280;29079;41.930;25.558;2022-10-31T03:07:19;99904.19;;;10.51;59.89
7109;BME280;29079;41.930;25.558;2022-10-31T03:09:52;99901.28;;;10.54;59.85
7109;BME280;29079;41.930;25.558;2022-10-31T03:12:28;99915.22;;;10.58;59.90
7109;BME280;29079;41.930;25.558;2022-10-31T03:15:01;99904.03;;;10.64;60.01
7109;BME280;29079;41.930;25.558;2022-10-31T03:17:36;99914.09;;;10.72;59.22
7109;BME280;29079;41.930;25.558;2022-10-31T03:20:06;99911.41;;;10.72;59.30
7109;BME280;29079;41.930;25.558;2022-10-31T03:22:39;99910.28;;;10.74;59.54
7109;BME280;29079;41.930;25.558;2022-10-31T03:25:10;99912.59;;;10.79;59.36
7109;BME280;29079;41.930;25.558;2022-10-31T03:27:41;99916.94;;;10.80;59.22
7109;BME280;29079;41.930;25.558;2022-10-31T03:30:11;99907.25;;;10.79;58.88
7109;BME280;29079;41.930;25.558;2022-10-31T03:32:44;99912.94;;;10.74;58.37
7109;BME280;29079;41.930;25.558;2022-10-31T03:35:16;99913.09;;;10.73;58.67
7109;BME280;29079;41.930;25.558;2022-10-31T03:37:47;99912.38;;;10.71;58.59
7109;BME280;29079;41.930;25.558;2022-10-31T03:40:17;99908.66;;;10.62;59.21
7109;BME280;29079;41.930;25.558;2022-10-31T03:42:50;99919.97;;;10.54;58.93
7109;BME280;29079;41.930;25.558;2022-10-31T03:45:21;99909.38;;;10.64;59.04
7109;BME280;29079;41.930;25.558;2022-10-31T03:47:54;99916.06;;;10.58;58.98
7109;BME280;29079;41.930;25.558;2022-10-31T03:50:24;99915.59;;;10.53;59.34
7109;BME280;29079;41.930;25.558;2022-10-31T03:52:57;99916.53;;;10.63;59.52
7109;BME280;29079;41.930;25.558;2022-10-31T03:55:29;99905.59;;;10.67;59.09
7109;BME280;29079;41.930;25.558;2022-10-31T03:58:02;99907.50;;;10.76;59.22
7109;BME280;29079;41.930;25.558;2022-10-31T04:00:33;99912.13;;;10.74;58.88
7109;BME280;29079;41.930;25.558;2022-10-31T04:03:05;99918.69;;;10.70;59.62
7109;BME280;29079;41.930;25.558;2022-10-31T04:05:36;99911.06;;;10.65;59.40
7109;BME280;29079;41.930;25.558;2022-10-31T04:08:07;99922.25;;;10.59;59.69
7109;BME280;29079;41.930;25.558;2022-10-31T04:10:38;99922.31;;;10.69;59.84
7109;BME280;29079;41.930;25.558;2022-10-31T04:13:09;99922.16;;;10.82;59.58
7109;BME280;29079;41.930;25.558;2022-10-31T04:15:41;99922.28;;;10.80;59.61
7109;BME280;29079;41.930;25.558;2022-10-31T04:18:14;99911.59;;;10.80;60.04
7109;BME280;29079;41.930;25.558;2022-10-31T04:20:44;99907.88;;;10.71;60.48
7109;BME280;29079;41.930;25.558;2022-10-31T04:23:15;99918.78;;;10.79;60.49
7109;BME280;29079;41.930;25.558;2022-10-31T04:25:47;99916.19;;;10.89;61.01
7109;BME280;29079;41.930;25.558;2022-10-31T04:28:17;99916.63;;;10.94;61.39
7109;BME280;29079;41.930;25.558;2022-10-31T04:30:51;99921.00;;;10.95;61.55
7109;BME280;29079;41.930;25.558;2022-10-31T04:33:26;99920.75;;;10.98;62.21
7109;BME280;29079;41.930;25.558;2022-10-31T04:35:55;99923.41;;;10.98;62.73
7109;BME280;29079;41.930;25.558;2022-10-31T04:38:25;99925.41;;;11.06;62.25
7109;BME280;29079;41.930;25.558;2022-10-31T04:40:55;99924.06;;;11.12;62.20
7109;BME280;29079;41.930;25.558;2022-10-31T04:43:24;99927.19;;;11.17;62.23
7109;BME280;29079;41.930;25.558;2022-10-31T04:45:54;99930.56;;;11.19;62.37
7109;BME280;29079;41.930;25.558;2022-10-31T04:48:25;99928.50;;;11.23;62.17
7109;BME280;29079;41.930;25.558;2022-10-31T04:50:58;99927.78;;;11.21;62.51
7109;BME280;29079;41.930;25.558;2022-10-31T04:53:28;99931.75;;;11.26;62.54
7109;BME280;29079;41.930;25.558;2022-10-31T04:55:57;99932.22;;;11.31;62.95
7109;BME280;29079;41.930;25.558;2022-10-31T04:58:27;99938.25;;;11.33;62.61
7109;BME280;29079;41.930;25.558;2022-10-31T05:00:57;99948.94;;;11.33;63.12
7109;BME280;29079;41.930;25.558;2022-10-31T05:03:28;99953.59;;;11.31;63.04
7109;BME280;29079;41.930;25.558;2022-10-31T05:05:58;99953.06;;;11.38;63.21
7109;BME280;29079;41.930;25.558;2022-10-31T05:08:27;99962.50;;;11.42;63.17
7109;BME280;29079;41.930;25.558;2022-10-31T05:10:59;99955.72;;;11.38;63.62
7109;BME280;29079;41.930;25.558;2022-10-31T05:13:32;99959.56;;;11.45;63.69
7109;BME280;29079;41.930;25.558;2022-10-31T05:16:02;99963.81;;;11.47;63.67
7109;BME280;29079;41.930;25.558;2022-10-31T05:18:33;99961.44;;;11.54;63.29
7109;BME280;29079;41.930;25.558;2022-10-31T05:21:03;99976.38;;;11.57;63.86
7109;BME280;29079;41.930;25.558;2022-10-31T05:23:32;99976.84;;;11.62;64.58
7109;BME280;29079;41.930;25.558;2022-10-31T05:26:02;99985.16;;;11.68;64.47
7109;BME280;29079;41.930;25.558;2022-10-31T05:28:32;99992.78;;;11.73;64.58
7109;BME280;29079;41.930;25.558;2022-10-31T05:31:01;100001.28;;;11.78;64.38
7109;BME280;29079;41.930;25.558;2022-10-31T05:33:31;99996.13;;;11.87;64.43
7109;BME280;29079;41.930;25.558;2022-10-31T05:36:02;99996.69;;;11.90;64.09
7109;BME280;29079;41.930;25.558;2022-10-31T05:38:32;100005.19;;;11.95;63.61
7109;BME280;29079;41.930;25.558;2022-10-31T05:41:01;100009.28;;;11.99;63.27
7109;BME280;29079;41.930;25.558;2022-10-31T05:43:31;100007.19;;;12.03;62.68
7109;BME280;29079;41.930;25.558;2022-10-31T05:46:01;100014.94;;;12.06;62.88
7109;BME280;29079;41.930;25.558;2022-10-31T05:48:30;100017.22;;;12.11;62.57
7109;BME280;29079;41.930;25.558;2022-10-31T05:51:01;100025.69;;;12.16;62.18
7109;BME280;29079;41.930;25.558;2022-10-31T05:53:31;100032.47;;;12.20;62.44
7109;BME280;29079;41.930;25.558;2022-10-31T05:56:00;100035.44;;;12.27;62.32
7109;BME280;29079;41.930;25.558;2022-10-31T05:58:30;100029.44;;;12.34;62.47
7109;BME280;29079;41.930;25.558;2022-10-31T06:00:59;100037.63;;;12.43;62.35
7109;BME280;29079;41.930;25.558;2022-10-31T06:03:29;100037.66;;;12.52;62.73
7109;BME280;29079;41.930;25.558;2022-10-31T06:05:59;100046.41;;;12.64;62.69
7109;BME280;29079;41.930;25.558;2022-10-31T06:08:29;100044.63;;;12.84;62.52
7109;BME280;29079;41.930;25.558;2022-10-31T06:10:59;100047.19;;;12.96;62.46
7109;BME280;29079;41.930;25.558;2022-10-31T06:13:29;100050.13;;;13.02;62.21
7109;BME280;29079;41.930;25.558;2022-10-31T06:15:58;100052.84;;;13.22;61.80
7109;BME280;29079;41.930;25.558;2022-10-31T06:18:28;100057.34;;;13.21;61.91
7109;BME280;29079;41.930;25.558;2022-10-31T06:20:58;100055.41;;;13.33;61.58
7109;BME280;29079;41.930;25.558;2022-10-31T06:23:30;100059.78;;;13.34;61.55
7109;BME280;29079;41.930;25.558;2022-10-31T06:26:00;100061.78;;;13.42;61.54
7109;BME280;29079;41.930;25.558;2022-10-31T06:28:29;100068.81;;;13.53;61.42
7109;BME280;29079;41.930;25.558;2022-10-31T06:30:59;100069.38;;;13.56;61.00
7109;BME280;29079;41.930;25.558;2022-10-31T06:33:28;100063.44;;;13.63;60.97
7109;BME280;29079;41.930;25.558;2022-10-31T06:35:58;100065.97;;;13.74;60.66
7109;BME280;29079;41.930;25.558;2022-10-31T06:38:30;100069.06;;;13.79;60.56
7109;BME280;29079;41.930;25.558;2022-10-31T06:41:01;100073.44;;;13.90;59.86
7109;BME280;29079;41.930;25.558;2022-10-31T06:43:31;100071.59;;;13.90;59.79
7109;BME280;29079;41.930;25.558;2022-10-31T06:46:01;100070.84;;;13.98;59.95
7109;BME280;29079;41.930;25.558;2022-10-31T06:48:31;100078.34;;;14.04;59.73
7109;BME280;29079;41.930;25.558;2022-10-31T06:51:01;100074.78;;;14.14;59.46
7109;BME280;29079;41.930;25.558;2022-10-31T06:53:33;100078.28;;;14.14;59.22
7109;BME280;29079;41.930;25.558;2022-10-31T06:56:02;100073.78;;;14.15;59.35
7109;BME280;29079;41.930;25.558;2022-10-31T06:58:32;100072.38;;;14.20;59.03
7109;BME280;29079;41.930;25.558;2022-10-31T07:01:02;100069.91;;;14.27;58.94
7109;BME280;29079;41.930;25.558;2022-10-31T07:03:31;100067.06;;;14.38;58.36
7109;BME280;29079;41.930;25.558;2022-10-31T07:06:01;100067.16;;;14.47;58.46
7109;BME280;29079;41.930;25.558;2022-10-31T07:11:03;100071.09;;;14.52;58.11
7109;BME280;29079;41.930;25.558;2022-10-31T07:13:33;100074.63;;;14.53;58.16
7109;BME280;29079;41.930;25.558;2022-10-31T07:16:04;100072.63;;;14.55;58.50
7109;BME280;29079;41.930;25.558;2022-10-31T07:18:35;100079.75;;;14.74;57.56
7109;BME280;29079;41.930;25.558;2022-10-31T07:21:04;100074.91;;;14.87;57.42
7109;BME280;29079;41.930;25.558;2022-10-31T07:23:34;100075.69;;;14.97;57.11
7109;BME280;29079;41.930;25.558;2022-10-31T07:26:05;100077.53;;;15.15;56.58
7109;BME280;29079;41.930;25.558;2022-10-31T07:28:35;100068.84;;;15.39;56.18
7109;BME280;29079;41.930;25.558;2022-10-31T07:31:05;100079.00;;;15.45;55.23
7109;BME280;29079;41.930;25.558;2022-10-31T07:33:35;100081.06;;;15.52;55.59
7109;BME280;29079;41.930;25.558;2022-10-31T07:36:05;100073.06;;;15.42;55.64
7109;BME280;29079;41.930;25.558;2022-10-31T07:38:35;100076.22;;;15.37;55.84
7109;BME280;29079;41.930;25.558;2022-10-31T07:41:06;100072.91;;;15.43;55.51
7109;BME280;29079;41.930;25.558;2022-10-31T07:43:35;100085.28;;;15.36;56.12
7109;BME280;29079;41.930;25.558;2022-10-31T07:46:05;100085.84;;;15.40;55.79
7109;BME280;29079;41.930;25.558;2022-10-31T07:48:34;100082.59;;;15.54;55.42
7109;BME280;29079;41.930;25.558;2022-10-31T07:51:04;100084.59;;;15.70;55.23
7109;BME280;29079;41.930;25.558;2022-10-31T07:53:35;100082.09;;;15.77;54.87
7109;BME280;29079;41.930;25.558;2022-10-31T07:56:06;100077.22;;;15.90;54.29
7109;BME280;29079;41.930;25.558;2022-10-31T07:58:36;100075.09;;;16.02;54.08
7109;BME280;29079;41.930;25.558;2022-10-31T08:01:06;100078.78;;;16.01;54.16
7109;BME280;29079;41.930;25.558;2022-10-31T08:03:36;100076.06;;;16.27;53.81
7109;BME280;29079;41.930;25.558;2022-10-31T08:06:06;100083.03;;;16.38;53.35
7109;BME280;29079;41.930;25.558;2022-10-31T08:08:35;100081.19;;;16.39;53.35
7109;BME280;29079;41.930;25.558;2022-10-31T08:11:07;100084.66;;;16.57;52.84
7109;BME280;29079;41.930;25.558;2022-10-31T08:13:37;100085.31;;;16.59;52.57
7109;BME280;29079;41.930;25.558;2022-10-31T08:16:07;100085.53;;;16.74;51.93
7109;BME280;29079;41.930;25.558;2022-10-31T08:18:37;100090.16;;;16.90;51.59
7109;BME280;29079;41.930;25.558;2022-10-31T08:21:06;100091.06;;;17.07;51.28
7109;BME280;29079;41.930;25.558;2022-10-31T08:23:36;100087.00;;;17.03;51.52
7109;BME280;29079;41.930;25.558;2022-10-31T08:26:07;100089.03;;;17.09;51.32
7109;BME280;29079;41.930;25.558;2022-10-31T08:28:37;100086.88;;;17.13;51.30
7109;BME280;29079;41.930;25.558;2022-10-31T08:31:07;100092.13;;;17.39;50.24
7109;BME280;29079;41.930;25.558;2022-10-31T08:33:38;100085.25;;;17.53;49.96
7109;BME280;29079;41.930;25.558;2022-10-31T08:36:09;100086.41;;;17.42;50.55
7109;BME280;29079;41.930;25.558;2022-10-31T08:38:38;100090.13;;;17.57;49.66
7109;BME280;29079;41.930;25.558;2022-10-31T08:41:09;100035.66;;;17.21;49.98
7109;BME280;29079;41.930;25.558;2022-10-31T08:43:39;100094.50;;;17.67;49.78
7109;BME280;29079;41.930;25.558;2022-10-31T08:46:09;100085.06;;;17.71;49.57
7109;BME280;29079;41.930;25.558;2022-10-31T08:48:38;100092.34;;;17.70;49.42
7109;BME280;29079;41.930;25.558;2022-10-31T08:51:08;100078.97;;;17.77;49.68
7109;BME280;29079;41.930;25.558;2022-10-31T08:53:38;100090.81;;;17.92;49.29
7109;BME280;29079;41.930;25.558;2022-10-31T08:56:09;100086.44;;;18.00;49.23
7109;BME280;29079;41.930;25.558;2022-10-31T08:58:39;100089.28;;;18.06;48.98
7109;BME280;29079;41.930;25.558;2022-10-31T09:01:08;100090.66;;;18.02;49.28
7109;BME280;29079;41.930;25.558;2022-10-31T09:03:39;100086.75;;;18.13;48.92
7109;BME280;29079;41.930;25.558;2022-10-31T09:06:08;100088.25;;;18.07;49.25
7109;BME280;29079;41.930;25.558;2022-10-31T09:08:38;100090.09;;;18.15;49.25
7109;BME280;29079;41.930;25.558;2022-10-31T09:11:09;100090.28;;;18.14;49.32
7109;BME280;29079;41.930;25.558;2022-10-31T09:13:39;100088.44;;;18.06;49.58
7109;BME280;29079;41.930;25.558;2022-10-31T09:16:09;100099.72;;;18.18;49.41
7109;BME280;29079;41.930;25.558;2022-10-31T09:18:39;100086.25;;;18.09;49.31
7109;BME280;29079;41.930;25.558;2022-10-31T09:21:09;100096.84;;;18.19;49.18
7109;BME280;29079;41.930;25.558;2022-10-31T09:23:38;100095.19;;;18.18;49.32
7109;BME280;29079;41.930;25.558;2022-10-31T09:26:09;100094.31;;;18.34;48.70
7109;BME280;29079;41.930;25.558;2022-10-31T09:28:39;100096.50;;;18.31;49.06
7109;BME280;29079;41.930;25.558;2022-10-31T09:31:09;100094.44;;;18.41;48.52
7109;BME280;29079;41.930;25.558;2022-10-31T09:33:38;100085.97;;;18.44;48.61
7109;BME280;29079;41.930;25.558;2022-10-31T09:36:08;100091.38;;;18.44;48.74
7109;BME280;29079;41.930;25.558;2022-10-31T09:38:38;100095.13;;;18.43;48.86
7109;BME280;29079;41.930;25.558;2022-10-31T09:41:08;100086.69;;;18.38;48.82
7109;BME280;29079;41.930;25.558;2022-10-31T09:43:49;100090.53;;;18.52;48.57
7109;BME280;29079;41.930;25.558;2022-10-31T09:46:24;100082.19;;;18.61;48.43
7109;BME280;29079;41.930;25.558;2022-10-31T09:49:01;100089.47;;;18.61;48.54
7109;BME280;29079;41.930;25.558;2022-10-31T09:51:36;100083.50;;;18.74;48.32
7109;BME280;29079;41.930;25.558;2022-10-31T09:54:09;100081.63;;;18.74;48.39
7109;BME280;29079;41.930;25.558;2022-10-31T09:56:39;100075.69;;;18.79;48.41
7109;BME280;29079;41.930;25.558;2022-10-31T09:59:12;100070.28;;;18.79;48.42
7109;BME280;29079;41.930;25.558;2022-10-31T10:01:53;100071.63;;;18.91;47.87
7109;BME280;29079;41.930;25.558;2022-10-31T10:04:47;100068.22;;;18.89;47.87
7109;BME280;29079;41.930;25.558;2022-10-31T10:07:22;100072.41;;;19.00;48.00
7109;BME280;29079;41.930;25.558;2022-10-31T10:09:55;100072.78;;;18.97;47.81
7109;BME280;29079;41.930;25.558;2022-10-31T10:12:31;100074.28;;;19.00;47.52
7109;BME280;29079;41.930;25.558;2022-10-31T10:15:16;100063.00;;;19.19;47.32
7109;BME280;29079;41.930;25.558;2022-10-31T10:17:52;100053.06;;;19.11;47.27
7109;BME280;29079;41.930;25.558;2022-10-31T10:20:31;100060.66;;;19.16;47.34
7109;BME280;29079;41.930;25.558;2022-10-31T10:23:08;100062.59;;;19.30;46.75
7109;BME280;29079;41.930;25.558;2022-10-31T10:25:41;100058.00;;;19.31;46.82
7109;BME280;29079;41.930;25.558;2022-10-31T10:28:16;100051.16;;;19.20;47.05
7109;BME280;29079;41.930;25.558;2022-10-31T10:30:50;100059.91;;;19.22;47.03
7109;BME280;29079;41.930;25.558;2022-10-31T10:33:24;100048.09;;;19.23;46.88
7109;BME280;29079;41.930;25.558;2022-10-31T10:35:57;100039.00;;;19.16;47.21
7109;BME280;29079;41.930;25.558;2022-10-31T10:38:31;100036.59;;;19.21;46.99
7109;BME280;29079;41.930;25.558;2022-10-31T10:41:04;100042.13;;;19.28;46.89
7109;BME280;29079;41.930;25.558;2022-10-31T10:43:35;100037.03;;;19.33;46.40
7109;BME280;29079;41.930;25.558;2022-10-31T10:46:14;100042.06;;;19.36;46.53
7109;BME280;29079;41.930;25.558;2022-10-31T10:49:06;100035.38;;;19.47;46.13
7109;BME280;29079;41.930;25.558;2022-10-31T10:51:40;100036.72;;;19.66;45.58
7109;BME280;29079;41.930;25.558;2022-10-31T10:54:42;100033.25;;;19.80;45.20
7109;BME280;29079;41.930;25.558;2022-10-31T11:00:10;100027.34;;;19.77;45.80
7109;BME280;29079;41.930;25.558;2022-10-31T11:02:43;100021.53;;;19.65;46.05
7109;BME280;29079;41.930;25.558;2022-10-31T11:05:21;100023.00;;;19.67;46.11
7109;BME280;29079;41.930;25.558;2022-10-31T11:07:52;100026.28;;;19.78;45.71
7109;BME280;29079;41.930;25.558;2022-10-31T11:10:21;100022.19;;;20.20;44.53
7109;BME280;29079;41.930;25.558;2022-10-31T11:13:00;100016.66;;;19.98;45.26
7109;BME280;29079;41.930;25.558;2022-10-31T11:15:31;100021.50;;;19.88;45.49
7109;BME280;29079;41.930;25.558;2022-10-31T11:18:04;100016.19;;;20.10;44.85
7109;BME280;29079;41.930;25.558;2022-10-31T11:20:35;100023.66;;;20.23;44.70
7109;BME280;29079;41.930;25.558;2022-10-31T11:23:14;100012.44;;;20.11;45.00
7109;BME280;29079;41.930;25.558;2022-10-31T11:25:48;100007.59;;;20.06;45.11
7109;BME280;29079;41.930;25.558;2022-10-31T11:28:19;100010.50;;;20.05;45.30
7109;BME280;29079;41.930;25.558;2022-10-31T11:30:50;100007.47;;;19.99;45.44
7109;BME280;29079;41.930;25.558;2022-10-31T11:33:24;100007.00;;;20.26;44.56
7109;BME280;29079;41.930;25.558;2022-10-31T11:35:55;100006.94;;;20.34;44.22
7109;BME280;29079;41.930;25.558;2022-10-31T11:38:34;100007.19;;;20.24;44.49
7109;BME280;29079;41.930;25.558;2022-10-31T11:41:09;100008.34;;;20.15;44.93
7109;BME280;29079;41.930;25.558;2022-10-31T11:43:50;100003.66;;;19.94;45.06
7109;BME280;29079;41.930;25.558;2022-10-31T11:46:21;100005.25;;;19.88;45.54
7109;BME280;29079;41.930;25.558;2022-10-31T11:48:53;99994.13;;;19.83;45.56
7109;BME280;29079;41.930;25.558;2022-10-31T11:51:25;100003.88;;;19.69;45.85
7109;BME280;29079;41.930;25.558;2022-10-31T11:53:56;100005.75;;;19.69;45.99
7109;BME280;29079;41.930;25.558;2022-10-31T11:56:37;99998.28;;;19.71;45.96
7109;BME280;29079;41.930;25.558;2022-10-31T11:59:15;99995.03;;;19.75;46.06
7109;BME280;29079;41.930;25.558;2022-10-31T12:01:47;100003.75;;;20.00;45.27
7109;BME280;29079;41.930;25.558;2022-10-31T12:04:19;99991.44;;;19.83;45.58
7109;BME280;29079;41.930;25.558;2022-10-31T12:06:51;99995.03;;;19.75;45.84
7109;BME280;29079;41.930;25.558;2022-10-31T12:09:22;99990.63;;;19.59;46.54
7109;BME280;29079;41.930;25.558;2022-10-31T12:11:57;99993.19;;;19.38;47.29
7109;BME280;29079;41.930;25.558;2022-10-31T12:14:34;99986.09;;;19.37;47.17
7109;BME280;29079;41.930;25.558;2022-10-31T12:17:08;99988.78;;;19.37;47.17
7109;BME280;29079;41.930;25.558;2022-10-31T12:19:42;99985.28;;;19.51;46.80
7109;BME280;29079;41.930;25.558;2022-10-31T12:22:23;99985.84;;;19.61;46.60
7109;BME280;29079;41.930;25.558;2022-10-31T12:27:51;99982.25;;;19.46;46.94
7109;BME280;29079;41.930;25.558;2022-10-31T12:30:25;99985.09;;;19.53;46.70
7109;BME280;29079;41.930;25.558;2022-10-31T12:33:02;99987.03;;;19.44;47.12
7109;BME280;29079;41.930;25.558;2022-10-31T12:38:29;99979.56;;;19.46;46.89
7109;BME280;29079;41.930;25.558;2022-10-31T12:41:06;99978.34;;;19.48;46.84
7109;BME280;29079;41.930;25.558;2022-10-31T12:43:41;99967.28;;;19.58;46.58
7109;BME280;29079;41.930;25.558;2022-10-31T12:46:17;99974.72;;;20.09;45.69
7109;BME280;29079;41.930;25.558;2022-10-31T12:48:56;99965.91;;;19.92;45.77
7109;BME280;29079;41.930;25.558;2022-10-31T12:51:33;99974.81;;;19.86;46.09
7109;BME280;29079;41.930;25.558;2022-10-31T12:56:53;99970.97;;;19.80;46.27
7109;BME280;29079;41.930;25.558;2022-10-31T12:59:28;99971.91;;;19.88;45.96
7109;BME280;29079;41.930;25.558;2022-10-31T13:02:00;99972.13;;;19.78;46.15
7109;BME280;29079;41.930;25.558;2022-10-31T13:04:36;99969.19;;;19.88;45.84
7109;BME280;29079;41.930;25.558;2022-10-31T13:07:09;99974.94;;;19.70;46.45
7109;BME280;29079;41.930;25.558;2022-10-31T13:09:42;99971.38;;;19.54;46.80
7109;BME280;29079;41.930;25.558;2022-10-31T13:12:15;99972.63;;;19.66;46.59
7109;BME280;29079;41.930;25.558;2022-10-31T13:14:47;99975.19;;;19.83;46.08
7109;BME280;29079;41.930;25.558;2022-10-31T13:17:21;99969.53;;;19.70;46.78
7109;BME280;29079;41.930;25.558;2022-10-31T13:19:53;99977.06;;;19.97;45.53
7109;BME280;29079;41.930;25.558;2022-10-31T13:22:24;99976.28;;;19.74;46.27
7109;BME280;29079;41.930;25.558;2022-10-31T13:24:55;99975.84;;;19.47;46.85
7109;BME280;29079;41.930;25.558;2022-10-31T13:27:29;99968.56;;;19.47;46.87
7109;BME280;29079;41.930;25.558;2022-10-31T13:30:01;99972.00;;;19.41;47.36
7109;BME280;29079;41.930;25.558;2022-10-31T13:32:36;99965.94;;;19.39;47.24
7109;BME280;29079;41.930;25.558;2022-10-31T13:35:09;99977.19;;;19.28;47.64
7109;BME280;29079;41.930;25.558;2022-10-31T13:37:43;99970.41;;;19.32;47.59
7109;BME280;29079;41.930;25.558;2022-10-31T13:40:24;99971.31;;;19.24;47.70
7109;BME280;29079;41.930;25.558;2022-10-31T13:43:02;99966.09;;;19.23;47.46